sensor_id;sensor_type;location;lat;lon;timestamp;temperature;humidity
46037;DHT22;31769;49.304;8.428;2023-05-10T00:02:08;13.90;99.90
46037;DHT22;31769;49.304;8.428;2023-05-10T00:05:08;13.90;99.90
46037;DHT22;31769;49.304;8.428;2023-05-10T00:08:09;13.90;99.90
46037;DHT22;31769;49.304;8.428;2023-05-10T00:11:10;13.80;99.90
46037;DHT22;31769;49.304;8.428;2023-05-10T00:14:11;13.80;99.90
46037;DHT22;31769;49.304;8.428;2023-05-10T00:17:12;13.80;99.90
46037;DHT22;31769;49.304;8.428;2023-05-10T00:20:13;13.80;99.90
46037;DHT22;31769;49.304;8.428;2023-05-10T00:23:13;13.80;99.90
46037;DHT22;31769;49.304;8.428;2023-05-10T00:26:14;13.80;99.90
46037;DHT22;31769;49.304;8.428;2023-05-10T00:29:19;13.80;99.90
46037;DHT22;31769;49.304;8.428;2023-05-10T00:32:20;13.80;99.90
46037;DHT22;31769;49.304;8.428;2023-05-10T00:35:21;13.70;99.90
46037;DHT22;31769;49.304;8.428;2023-05-10T00:38:22;13.70;99.90
46037;DHT22;31769;49.304;8.428;2023-05-10T00:41:22;13.80;99.90
46037;DHT22;31769;49.304;8.428;2023-05-10T00:44:23;13.80;99.90
46037;DHT22;31769;49.304;8.428;2023-05-10T00:47:24;13.70;99.90
46037;DHT22;31769;49.304;8.428;2023-05-10T00:50:25;13.70;99.90
46037;DHT22;31769;49.304;8.428;2023-05-10T00:53:26;13.70;99.90
46037;DHT22;31769;49.304;8.428;2023-05-10T00:56:27;13.70;99.90
46037;DHT22;31769;49.304;8.428;2023-05-10T00:59:30;13.70;99.90
46037;DHT22;31769;49.304;8.428;2023-05-10T01:02:31;13.70;99.90
46037;DHT22;31769;49.304;8.428;2023-05-10T01:05:31;13.70;99.90
46037;DHT22;31769;49.304;8.428;2023-05-10T01:08:32;13.70;99.90
46037;DHT22;31769;49.304;8.428;2023-05-10T01:11:35;13.70;99.90
46037;DHT22;31769;49.304;8.428;2023-05-10T01:14:36;13.60;99.90
46037;DHT22;31769;49.304;8.428;2023-05-10T01:17:39;13.60;99.90
46037;DHT22;31769;49.304;8.428;2023-05-10T01:20:43;13.60;99.90
46037;DHT22;31769;49.304;8.428;2023-05-10T01:33:55;13.60;99.90
46037;DHT22;31769;49.304;8.428;2023-05-10T01:37:07;13.50;99.90
46037;DHT22;31769;49.304;8.428;2023-05-10T01:40:32;13.50;99.90
46037;DHT22;31769;49.304;8.428;2023-05-10T01:43:57;13.50;99.90
46037;DHT22;31769;49.304;8.428;2023-05-10T01:47:05;13.50;99.90
46037;DHT22;31769;49.304;8.428;2023-05-10T01:50:17;13.50;99.90
46037;DHT22;31769;49.304;8.428;2023-05-10T01:53:19;13.50;99.90
46037;DHT22;31769;49.304;8.428;2023-05-10T01:56:24;13.60;99.90
46037;DHT22;31769;49.304;8.428;2023-05-10T01:59:30;13.60;99.90
46037;DHT22;31769;49.304;8.428;2023-05-10T02:04:11;13.50;99.90
46037;DHT22;31769;49.304;8.428;2023-05-10T02:07:14;13.50;99.90
46037;DHT22;31769;49.304;8.428;2023-05-10T02:10:15;13.50;99.90
46037;DHT22;31769;49.304;8.428;2023-05-10T02:13:18;13.50;99.90
46037;DHT22;31769;49.304;8.428;2023-05-10T02:16:23;13.50;99.90
46037;DHT22;31769;49.304;8.428;2023-05-10T02:19:26;13.50;99.90
46037;DHT22;31769;49.304;8.428;2023-05-10T02:22:31;13.50;99.90
46037;DHT22;31769;49.304;8.428;2023-05-10T02:25:32;13.40;99.90
46037;DHT22;31769;49.304;8.428;2023-05-10T02:28:35;13.40;99.90
46037;DHT22;31769;49.304;8.428;2023-05-10T02:31:36;13.40;99.90
46037;DHT22;31769;49.304;8.428;2023-05-10T02:34:39;13.50;99.90
46037;DHT22;31769;49.304;8.428;2023-05-10T02:37:41;13.40;99.90
46037;DHT22;31769;49.304;8.428;2023-05-10T02:40:42;13.40;99.90
46037;DHT22;31769;49.304;8.428;2023-05-10T02:43:44;13.40;99.90
46037;DHT22;31769;49.304;8.428;2023-05-10T02:46:45;13.40;99.90
46037;DHT22;31769;49.304;8.428;2023-05-10T02:49:47;13.40;99.90
46037;DHT22;31769;49.304;8.428;2023-05-10T02:52:51;13.40;99.90
46037;DHT22;31769;49.304;8.428;2023-05-10T02:55:58;13.40;99.90
46037;DHT22;31769;49.304;8.428;2023-05-10T02:59:01;13.40;99.90
46037;DHT22;31769;49.304;8.428;2023-05-10T03:02:02;13.30;99.90
46037;DHT22;31769;49.304;8.428;2023-05-10T03:05:03;13.30;99.90
46037;DHT22;31769;49.304;8.428;2023-05-10T03:08:04;13.30;99.90
46037;DHT22;31769;49.304;8.428;2023-05-10T03:11:14;13.30;99.90
46037;DHT22;31769;49.304;8.428;2023-05-10T03:14:53;13.30;99.90
46037;DHT22;31769;49.304;8.428;2023-05-10T03:18:21;13.20;99.90
46037;DHT22;31769;49.304;8.428;2023-05-10T03:21:25;13.20;99.90
46037;DHT22;31769;49.304;8.428;2023-05-10T03:24:28;13.20;99.90
46037;DHT22;31769;49.304;8.428;2023-05-10T03:27:32;13.20;99.90
46037;DHT22;31769;49.304;8.428;2023-05-10T03:30:35;13.20;99.90
46037;DHT22;31769;49.304;8.428;2023-05-10T03:33:46;13.20;99.90
46037;DHT22;31769;49.304;8.428;2023-05-10T03:36:47;13.20;99.90
46037;DHT22;31769;49.304;8.428;2023-05-10T03:39:48;13.20;99.90
46037;DHT22;31769;49.304;8.428;2023-05-10T03:42:49;13.20;99.90
46037;DHT22;31769;49.304;8.428;2023-05-10T03:45:50;13.30;99.90
46037;DHT22;31769;49.304;8.428;2023-05-10T03:48:51;13.20;99.90
46037;DHT22;31769;49.304;8.428;2023-05-10T03:51:52;13.30;99.90
46037;DHT22;31769;49.304;8.428;2023-05-10T03:54:53;13.30;99.90
46037;DHT22;31769;49.304;8.428;2023-05-10T03:57:53;13.40;99.90
46037;DHT22;31769;49.304;8.428;2023-05-10T04:00:56;13.40;99.90
46037;DHT22;31769;49.304;8.428;2023-05-10T04:03:57;13.30;99.90
46037;DHT22;31769;49.304;8.428;2023-05-10T04:06:57;13.30;99.90
46037;DHT22;31769;49.304;8.428;2023-05-10T04:09:58;13.30;99.90
46037;DHT22;31769;49.304;8.428;2023-05-10T04:12:59;13.20;99.90
46037;DHT22;31769;49.304;8.428;2023-05-10T04:16:00;13.20;99.90
46037;DHT22;31769;49.304;8.428;2023-05-10T04:19:00;13.30;99.90
46037;DHT22;31769;49.304;8.428;2023-05-10T04:22:02;13.30;99.90
46037;DHT22;31769;49.304;8.428;2023-05-10T04:25:04;13.30;99.90
46037;DHT22;31769;49.304;8.428;2023-05-10T04:28:05;13.20;99.90
46037;DHT22;31769;49.304;8.428;2023-05-10T04:31:07;13.30;99.90
46037;DHT22;31769;49.304;8.428;2023-05-10T04:34:07;13.40;99.90
46037;DHT22;31769;49.304;8.428;2023-05-10T04:37:08;13.40;99.90
46037;DHT22;31769;49.304;8.428;2023-05-10T04:40:09;13.40;99.90
46037;DHT22;31769;49.304;8.428;2023-05-10T04:43:10;13.50;99.90
46037;DHT22;31769;49.304;8.428;2023-05-10T04:46:10;13.60;99.90
46037;DHT22;31769;49.304;8.428;2023-05-10T04:49:11;13.50;99.90
46037;DHT22;31769;49.304;8.428;2023-05-10T04:52:12;13.60;99.90
46037;DHT22;31769;49.304;8.428;2023-05-10T04:55:13;13.60;99.90
46037;DHT22;31769;49.304;8.428;2023-05-10T04:58:14;13.60;99.90
46037;DHT22;31769;49.304;8.428;2023-05-10T05:01:15;13.60;99.90
46037;DHT22;31769;49.304;8.428;2023-05-10T05:04:15;13.60;99.90
46037;DHT22;31769;49.304;8.428;2023-05-10T05:07:16;13.60;99.90
46037;DHT22;31769;49.304;8.428;2023-05-10T05:10:16;13.60;99.90
46037;DHT22;31769;49.304;8.428;2023-05-10T05:13:17;13.60;99.90
46037;DHT22;31769;49.304;8.428;2023-05-10T05:16:18;13.60;99.90
46037;DHT22;31769;49.304;8.428;2023-05-10T05:19:19;13.60;99.90
46037;DHT22;31769;49.304;8.428;2023-05-10T05:22:19;13.60;99.90
46037;DHT22;31769;49.304;8.428;2023-05-10T05:25:27;13.60;99.90
46037;DHT22;31769;49.304;8.428;2023-05-10T05:28:28;13.70;99.90
46037;DHT22;31769;49.304;8.428;2023-05-10T05:31:33;13.80;99.90
46037;DHT22;31769;49.304;8.428;2023-05-10T05:34:33;13.90;99.90
46037;DHT22;31769;49.304;8.428;2023-05-10T05:37:34;13.90;99.90
46037;DHT22;31769;49.304;8.428;2023-05-10T05:40:35;14.00;99.90
46037;DHT22;31769;49.304;8.428;2023-05-10T05:43:36;14.00;99.90
46037;DHT22;31769;49.304;8.428;2023-05-10T05:46:37;14.00;99.90
46037;DHT22;31769;49.304;8.428;2023-05-10T05:49:37;14.10;99.90
46037;DHT22;31769;49.304;8.428;2023-05-10T05:52:38;14.20;99.90
46037;DHT22;31769;49.304;8.428;2023-05-10T05:55:39;14.20;99.90
46037;DHT22;31769;49.304;8.428;2023-05-10T05:58:40;14.20;99.90
46037;DHT22;31769;49.304;8.428;2023-05-10T06:01:40;14.20;99.90
46037;DHT22;31769;49.304;8.428;2023-05-10T06:04:41;14.30;99.90
46037;DHT22;31769;49.304;8.428;2023-05-10T06:07:41;14.30;99.90
46037;DHT22;31769;49.304;8.428;2023-05-10T06:10:42;14.40;99.90
46037;DHT22;31769;49.304;8.428;2023-05-10T06:13:43;14.50;99.90
46037;DHT22;31769;49.304;8.428;2023-05-10T06:16:44;14.60;99.90
46037;DHT22;31769;49.304;8.428;2023-05-10T06:19:44;14.70;99.90
46037;DHT22;31769;49.304;8.428;2023-05-10T06:22:45;14.70;99.90
46037;DHT22;31769;49.304;8.428;2023-05-10T06:25:46;14.70;99.90
46037;DHT22;31769;49.304;8.428;2023-05-10T06:28:46;14.70;99.90
46037;DHT22;31769;49.304;8.428;2023-05-10T06:31:47;14.70;99.90
46037;DHT22;31769;49.304;8.428;2023-05-10T06:34:48;14.70;99.90
46037;DHT22;31769;49.304;8.428;2023-05-10T06:37:49;14.70;99.90
46037;DHT22;31769;49.304;8.428;2023-05-10T06:40:50;14.70;99.90
46037;DHT22;31769;49.304;8.428;2023-05-10T06:43:51;14.80;99.90
46037;DHT22;31769;49.304;8.428;2023-05-10T06:46:51;14.80;99.90
46037;DHT22;31769;49.304;8.428;2023-05-10T06:49:53;14.90;99.90
46037;DHT22;31769;49.304;8.428;2023-05-10T06:52:54;15.00;99.90
46037;DHT22;31769;49.304;8.428;2023-05-10T06:55:56;15.20;99.90
46037;DHT22;31769;49.304;8.428;2023-05-10T06:58:56;15.20;99.90
46037;DHT22;31769;49.304;8.428;2023-05-10T07:01:57;15.30;99.90
46037;DHT22;31769;49.304;8.428;2023-05-10T07:04:58;15.30;99.90
46037;DHT22;31769;49.304;8.428;2023-05-10T07:07:58;15.40;99.90
46037;DHT22;31769;49.304;8.428;2023-05-10T07:11:03;15.40;99.90
46037;DHT22;31769;49.304;8.428;2023-05-10T07:14:04;15.50;99.90
46037;DHT22;31769;49.304;8.428;2023-05-10T07:17:05;15.70;99.90
46037;DHT22;31769;49.304;8.428;2023-05-10T07:20:12;15.90;99.90
46037;DHT22;31769;49.304;8.428;2023-05-10T07:27:35;16.10;99.90
46037;DHT22;31769;49.304;8.428;2023-05-10T07:30:36;16.10;99.90
46037;DHT22;31769;49.304;8.428;2023-05-10T07:33:36;16.20;99.90
46037;DHT22;31769;49.304;8.428;2023-05-10T07:36:37;16.30;99.90
46037;DHT22;31769;49.304;8.428;2023-05-10T07:39:38;16.40;99.90
46037;DHT22;31769;49.304;8.428;2023-05-10T07:42:38;16.50;99.90
46037;DHT22;31769;49.304;8.428;2023-05-10T07:45:39;16.60;99.90
46037;DHT22;31769;49.304;8.428;2023-05-10T07:48:40;16.70;99.90
46037;DHT22;31769;49.304;8.428;2023-05-10T07:51:40;16.90;99.90
46037;DHT22;31769;49.304;8.428;2023-05-10T07:54:42;16.80;99.90
46037;DHT22;31769;49.304;8.428;2023-05-10T07:57:43;16.70;99.90
46037;DHT22;31769;49.304;8.428;2023-05-10T08:00:44;16.60;99.90
46037;DHT22;31769;49.304;8.428;2023-05-10T08:03:44;16.70;99.90
46037;DHT22;31769;49.304;8.428;2023-05-10T08:06:45;16.90;99.90
46037;DHT22;31769;49.304;8.428;2023-05-10T08:09:46;17.00;99.90
46037;DHT22;31769;49.304;8.428;2023-05-10T08:12:46;17.10;99.90
46037;DHT22;31769;49.304;8.428;2023-05-10T08:15:47;17.30;99.90
46037;DHT22;31769;49.304;8.428;2023-05-10T08:18:48;17.20;99.90
46037;DHT22;31769;49.304;8.428;2023-05-10T08:21:51;17.10;99.90
46037;DHT22;31769;49.304;8.428;2023-05-10T08:24:52;17.30;99.90
46037;DHT22;31769;49.304;8.428;2023-05-10T08:27:52;17.20;99.90
46037;DHT22;31769;49.304;8.428;2023-05-10T08:30:53;17.20;99.90
46037;DHT22;31769;49.304;8.428;2023-05-10T08:33:54;17.20;99.90
46037;DHT22;31769;49.304;8.428;2023-05-10T08:36:54;17.30;99.90
46037;DHT22;31769;49.304;8.428;2023-05-10T08:39:55;17.30;99.90
46037;DHT22;31769;49.304;8.428;2023-05-10T08:43:04;17.30;99.90
46037;DHT22;31769;49.304;8.428;2023-05-10T08:46:07;17.30;99.90
46037;DHT22;31769;49.304;8.428;2023-05-10T08:49:10;17.10;99.90
46037;DHT22;31769;49.304;8.428;2023-05-10T08:52:15;17.10;99.90
46037;DHT22;31769;49.304;8.428;2023-05-10T08:55:17;17.20;99.90
46037;DHT22;31769;49.304;8.428;2023-05-10T08:58:19;17.30;99.90
46037;DHT22;31769;49.304;8.428;2023-05-10T09:01:20;17.30;99.90
46037;DHT22;31769;49.304;8.428;2023-05-10T09:04:21;17.30;99.90
46037;DHT22;31769;49.304;8.428;2023-05-10T09:07:22;17.30;99.90
46037;DHT22;31769;49.304;8.428;2023-05-10T09:10:24;17.10;99.90
46037;DHT22;31769;49.304;8.428;2023-05-10T09:13:27;17.10;99.90
46037;DHT22;31769;49.304;8.428;2023-05-10T09:16:28;17.10;99.90
46037;DHT22;31769;49.304;8.428;2023-05-10T09:19:29;17.00;99.90
46037;DHT22;31769;49.304;8.428;2023-05-10T09:22:30;17.10;99.90
46037;DHT22;31769;49.304;8.428;2023-05-10T09:25:31;17.20;99.90
46037;DHT22;31769;49.304;8.428;2023-05-10T09:28:54;17.30;99.90
46037;DHT22;31769;49.304;8.428;2023-05-10T09:31:55;17.40;99.90
46037;DHT22;31769;49.304;8.428;2023-05-10T09:34:56;17.60;99.90
46037;DHT22;31769;49.304;8.428;2023-05-10T09:38:01;17.70;99.90
46037;DHT22;31769;49.304;8.428;2023-05-10T09:41:02;17.50;99.90
46037;DHT22;31769;49.304;8.428;2023-05-10T09:44:04;17.40;99.90
46037;DHT22;31769;49.304;8.428;2023-05-10T09:47:04;17.30;99.90
46037;DHT22;31769;49.304;8.428;2023-05-10T09:50:06;17.30;99.90
46037;DHT22;31769;49.304;8.428;2023-05-10T09:53:06;17.40;99.90
46037;DHT22;31769;49.304;8.428;2023-05-10T09:56:07;17.60;99.90
46037;DHT22;31769;49.304;8.428;2023-05-10T09:59:10;17.80;99.90
46037;DHT22;31769;49.304;8.428;2023-05-10T10:02:11;18.00;99.90
46037;DHT22;31769;49.304;8.428;2023-05-10T10:05:13;18.10;99.90
46037;DHT22;31769;49.304;8.428;2023-05-10T10:08:15;18.10;99.90
46037;DHT22;31769;49.304;8.428;2023-05-10T10:11:16;18.50;99.90
46037;DHT22;31769;49.304;8.428;2023-05-10T10:14:18;18.80;99.90
46037;DHT22;31769;49.304;8.428;2023-05-10T10:17:19;19.10;99.90
46037;DHT22;31769;49.304;8.428;2023-05-10T10:20:22;19.20;99.90
46037;DHT22;31769;49.304;8.428;2023-05-10T10:23:24;19.50;99.90
46037;DHT22;31769;49.304;8.428;2023-05-10T10:26:25;19.60;99.90
46037;DHT22;31769;49.304;8.428;2023-05-10T10:35:44;19.30;99.90
46037;DHT22;31769;49.304;8.428;2023-05-10T10:41:54;18.50;99.90
46037;DHT22;31769;49.304;8.428;2023-05-10T10:45:12;18.10;99.90
46037;DHT22;31769;49.304;8.428;2023-05-10T10:48:23;17.60;99.90
46037;DHT22;31769;49.304;8.428;2023-05-10T10:51:23;17.40;99.90
46037;DHT22;31769;49.304;8.428;2023-05-10T10:54:32;17.50;99.90
46037;DHT22;31769;49.304;8.428;2023-05-10T11:00:42;17.70;99.90
46037;DHT22;31769;49.304;8.428;2023-05-10T11:04:17;17.90;99.90
46037;DHT22;31769;49.304;8.428;2023-05-10T11:07:19;18.30;99.90
46037;DHT22;31769;49.304;8.428;2023-05-10T11:10:21;18.90;99.90
46037;DHT22;31769;49.304;8.428;2023-05-10T11:16:43;19.20;99.90
46037;DHT22;31769;49.304;8.428;2023-05-10T11:20:10;19.20;99.90
46037;DHT22;31769;49.304;8.428;2023-05-10T11:23:14;19.00;99.90
46037;DHT22;31769;49.304;8.428;2023-05-10T11:26:16;18.90;99.90
46037;DHT22;31769;49.304;8.428;2023-05-10T11:29:17;18.70;99.90
46037;DHT22;31769;49.304;8.428;2023-05-10T11:32:19;18.30;99.90
46037;DHT22;31769;49.304;8.428;2023-05-10T11:35:20;18.00;99.90
46037;DHT22;31769;49.304;8.428;2023-05-10T11:38:21;17.70;99.90
46037;DHT22;31769;49.304;8.428;2023-05-10T11:41:23;17.50;99.90
46037;DHT22;31769;49.304;8.428;2023-05-10T11:44:29;17.20;99.90
46037;DHT22;31769;49.304;8.428;2023-05-10T11:47:30;17.10;99.90
46037;DHT22;31769;49.304;8.428;2023-05-10T11:50:31;17.30;99.90
46037;DHT22;31769;49.304;8.428;2023-05-10T11:53:33;17.20;99.90
46037;DHT22;31769;49.304;8.428;2023-05-10T11:56:33;17.30;99.90
46037;DHT22;31769;49.304;8.428;2023-05-10T11:59:34;17.30;99.90
46037;DHT22;31769;49.304;8.428;2023-05-10T12:02:35;17.40;99.90
46037;DHT22;31769;49.304;8.428;2023-05-10T12:05:36;17.60;99.90
46037;DHT22;31769;49.304;8.428;2023-05-10T12:08:44;17.70;99.90
46037;DHT22;31769;49.304;8.428;2023-05-10T12:11:45;18.10;99.90
46037;DHT22;31769;49.304;8.428;2023-05-10T12:14:50;18.30;99.90
46037;DHT22;31769;49.304;8.428;2023-05-10T12:17:51;18.50;99.90
46037;DHT22;31769;49.304;8.428;2023-05-10T12:20:52;18.80;99.90
46037;DHT22;31769;49.304;8.428;2023-05-10T12:23:58;19.00;99.90
46037;DHT22;31769;49.304;8.428;2023-05-10T12:26:59;18.90;99.90
46037;DHT22;31769;49.304;8.428;2023-05-10T12:30:00;19.40;99.90
46037;DHT22;31769;49.304;8.428;2023-05-10T12:33:11;19.70;99.90
46037;DHT22;31769;49.304;8.428;2023-05-10T12:36:13;21.40;99.90
46037;DHT22;31769;49.304;8.428;2023-05-10T12:39:14;21.70;99.30
46037;DHT22;31769;49.304;8.428;2023-05-10T12:42:15;21.90;98.40
46037;DHT22;31769;49.304;8.428;2023-05-10T12:45:17;22.10;98.80
46037;DHT22;31769;49.304;8.428;2023-05-10T12:48:18;22.20;96.80
46037;DHT22;31769;49.304;8.428;2023-05-10T12:51:19;22.60;94.00
46037;DHT22;31769;49.304;8.428;2023-05-10T12:54:22;21.70;93.90
46037;DHT22;31769;49.304;8.428;2023-05-10T12:57:23;21.50;94.10
46037;DHT22;31769;49.304;8.428;2023-05-10T13:00:23;22.10;93.70
46037;DHT22;31769;49.304;8.428;2023-05-10T13:03:24;22.10;93.40
46037;DHT22;31769;49.304;8.428;2023-05-10T13:06:25;22.30;93.50
46037;DHT22;31769;49.304;8.428;2023-05-10T13:09:27;22.40;91.90
46037;DHT22;31769;49.304;8.428;2023-05-10T13:12:31;22.50;91.60
46037;DHT22;31769;49.304;8.428;2023-05-10T13:15:32;23.00;91.50
46037;DHT22;31769;49.304;8.428;2023-05-10T13:18:33;23.20;90.20
46037;DHT22;31769;49.304;8.428;2023-05-10T13:21:34;23.20;90.30
46037;DHT22;31769;49.304;8.428;2023-05-10T13:24:34;23.40;90.10
46037;DHT22;31769;49.304;8.428;2023-05-10T13:27:35;23.00;87.90
46037;DHT22;31769;49.304;8.428;2023-05-10T13:30:36;22.70;88.50
46037;DHT22;31769;49.304;8.428;2023-05-10T13:33:36;22.60;87.50
46037;DHT22;31769;49.304;8.428;2023-05-10T13:36:37;22.30;86.60
46037;DHT22;31769;49.304;8.428;2023-05-10T13:39:38;22.20;86.30
46037;DHT22;31769;49.304;8.428;2023-05-10T13:42:39;22.40;87.50
46037;DHT22;31769;49.304;8.428;2023-05-10T13:45:40;22.70;87.70
46037;DHT22;31769;49.304;8.428;2023-05-10T13:48:40;22.40;86.80
46037;DHT22;31769;49.304;8.428;2023-05-10T13:51:44;22.50;87.50
46037;DHT22;31769;49.304;8.428;2023-05-10T13:54:44;22.50;84.50
46037;DHT22;31769;49.304;8.428;2023-05-10T13:57:45;22.80;83.00
46037;DHT22;31769;49.304;8.428;2023-05-10T14:00:46;22.50;82.50
46037;DHT22;31769;49.304;8.428;2023-05-10T14:03:46;22.80;82.40
46037;DHT22;31769;49.304;8.428;2023-05-10T14:06:47;23.30;80.80
46037;DHT22;31769;49.304;8.428;2023-05-10T14:09:48;22.60;81.30
46037;DHT22;31769;49.304;8.428;2023-05-10T14:12:49;22.20;83.50
46037;DHT22;31769;49.304;8.428;2023-05-10T14:15:50;22.50;81.60
46037;DHT22;31769;49.304;8.428;2023-05-10T14:18:51;22.80;80.80
46037;DHT22;31769;49.304;8.428;2023-05-10T14:21:52;23.40;79.10
46037;DHT22;31769;49.304;8.428;2023-05-10T14:24:53;23.90;76.90
46037;DHT22;31769;49.304;8.428;2023-05-10T14:27:54;23.40;77.60
46037;DHT22;31769;49.304;8.428;2023-05-10T14:30:55;23.90;77.70
46037;DHT22;31769;49.304;8.428;2023-05-10T14:33:55;24.70;77.70
46037;DHT22;31769;49.304;8.428;2023-05-10T14:36:57;24.90;76.90
46037;DHT22;31769;49.304;8.428;2023-05-10T14:39:58;25.60;75.20
46037;DHT22;31769;49.304;8.428;2023-05-10T14:42:59;25.70;73.70
46037;DHT22;31769;49.304;8.428;2023-05-10T14:46:00;26.30;73.70
46037;DHT22;31769;49.304;8.428;2023-05-10T14:49:00;26.00;70.90
46037;DHT22;31769;49.304;8.428;2023-05-10T14:52:01;25.60;71.60
46037;DHT22;31769;49.304;8.428;2023-05-10T14:55:02;26.20;69.60
46037;DHT22;31769;49.304;8.428;2023-05-10T14:58:03;27.40;67.80
46037;DHT22;31769;49.304;8.428;2023-05-10T15:01:03;29.30;64.90
46037;DHT22;31769;49.304;8.428;2023-05-10T15:04:04;30.00;59.30
46037;DHT22;31769;49.304;8.428;2023-05-10T15:07:05;30.30;58.30
46037;DHT22;31769;49.304;8.428;2023-05-10T15:10:06;30.60;57.50
46037;DHT22;31769;49.304;8.428;2023-05-10T15:13:07;29.50;58.10
46037;DHT22;31769;49.304;8.428;2023-05-10T15:16:08;28.40;59.20
46037;DHT22;31769;49.304;8.428;2023-05-10T15:19:08;27.00;59.50
46037;DHT22;31769;49.304;8.428;2023-05-10T15:22:09;27.50;59.50
46037;DHT22;31769;49.304;8.428;2023-05-10T15:25:09;27.80;58.70
46037;DHT22;31769;49.304;8.428;2023-05-10T15:28:10;27.50;59.90
46037;DHT22;31769;49.304;8.428;2023-05-10T15:31:11;26.80;59.60
46037;DHT22;31769;49.304;8.428;2023-05-10T15:34:12;26.50;61.00
46037;DHT22;31769;49.304;8.428;2023-05-10T15:37:13;25.50;62.00
46037;DHT22;31769;49.304;8.428;2023-05-10T15:40:13;24.90;63.20
46037;DHT22;31769;49.304;8.428;2023-05-10T15:43:14;24.70;64.40
46037;DHT22;31769;49.304;8.428;2023-05-10T15:46:15;24.50;64.70
46037;DHT22;31769;49.304;8.428;2023-05-10T15:49:16;24.10;66.10
46037;DHT22;31769;49.304;8.428;2023-05-10T15:52:16;23.70;67.60
46037;DHT22;31769;49.304;8.428;2023-05-10T15:55:18;24.10;67.40
46037;DHT22;31769;49.304;8.428;2023-05-10T15:58:19;24.70;66.20
46037;DHT22;31769;49.304;8.428;2023-05-10T16:01:19;24.90;66.80
46037;DHT22;31769;49.304;8.428;2023-05-10T16:04:21;25.20;66.00
46037;DHT22;31769;49.304;8.428;2023-05-10T16:07:22;25.00;66.20
46037;DHT22;31769;49.304;8.428;2023-05-10T16:10:22;24.80;65.50
46037;DHT22;31769;49.304;8.428;2023-05-10T16:13:23;24.50;67.50
46037;DHT22;31769;49.304;8.428;2023-05-10T16:16:24;24.00;67.40
46037;DHT22;31769;49.304;8.428;2023-05-10T16:19:25;23.50;68.70
46037;DHT22;31769;49.304;8.428;2023-05-10T16:22:26;23.50;70.00
46037;DHT22;31769;49.304;8.428;2023-05-10T16:25:28;23.10;72.40
46037;DHT22;31769;49.304;8.428;2023-05-10T16:28:28;22.40;75.20
46037;DHT22;31769;49.304;8.428;2023-05-10T16:31:29;22.40;74.50
46037;DHT22;31769;49.304;8.428;2023-05-10T16:34:30;22.40;75.30
46037;DHT22;31769;49.304;8.428;2023-05-10T16:37:30;23.30;75.60
46037;DHT22;31769;49.304;8.428;2023-05-10T16:40:31;23.40;74.50
46037;DHT22;31769;49.304;8.428;2023-05-10T16:43:32;23.20;74.50
46037;DHT22;31769;49.304;8.428;2023-05-10T16:46:33;23.00;75.70
46037;DHT22;31769;49.304;8.428;2023-05-10T16:49:35;22.40;78.00
46037;DHT22;31769;49.304;8.428;2023-05-10T16:52:36;22.20;80.10
46037;DHT22;31769;49.304;8.428;2023-05-10T16:55:36;21.80;81.60
46037;DHT22;31769;49.304;8.428;2023-05-10T16:58:37;21.50;83.40
46037;DHT22;31769;49.304;8.428;2023-05-10T17:01:38;21.00;85.40
46037;DHT22;31769;49.304;8.428;2023-05-10T17:04:39;20.50;89.00
46037;DHT22;31769;49.304;8.428;2023-05-10T17:07:40;20.20;90.80
46037;DHT22;31769;49.304;8.428;2023-05-10T17:10:41;19.80;91.60
46037;DHT22;31769;49.304;8.428;2023-05-10T17:13:41;19.40;92.40
46037;DHT22;31769;49.304;8.428;2023-05-10T17:16:42;19.30;92.50
46037;DHT22;31769;49.304;8.428;2023-05-10T17:19:46;19.20;92.60
46037;DHT22;31769;49.304;8.428;2023-05-10T17:22:47;19.00;92.80
46037;DHT22;31769;49.304;8.428;2023-05-10T17:25:48;18.90;93.90
46037;DHT22;31769;49.304;8.428;2023-05-10T17:28:48;19.10;94.90
46037;DHT22;31769;49.304;8.428;2023-05-10T17:31:49;18.50;95.50
46037;DHT22;31769;49.304;8.428;2023-05-10T17:34:49;18.30;96.90
46037;DHT22;31769;49.304;8.428;2023-05-10T17:37:51;18.70;98.30
46037;DHT22;31769;49.304;8.428;2023-05-10T17:40:51;18.10;99.50
46037;DHT22;31769;49.304;8.428;2023-05-10T17:43:53;18.00;99.90
46037;DHT22;31769;49.304;8.428;2023-05-10T17:46:54;18.00;99.90
46037;DHT22;31769;49.304;8.428;2023-05-10T17:49:54;18.10;99.90
46037;DHT22;31769;49.304;8.428;2023-05-10T17:52:55;17.90;99.90
46037;DHT22;31769;49.304;8.428;2023-05-10T17:55:56;18.10;99.90
46037;DHT22;31769;49.304;8.428;2023-05-10T17:58:58;18.00;99.90
46037;DHT22;31769;49.304;8.428;2023-05-10T18:02:00;17.90;99.90
46037;DHT22;31769;49.304;8.428;2023-05-10T18:05:01;17.90;99.90
46037;DHT22;31769;49.304;8.428;2023-05-10T18:08:02;17.80;99.90
46037;DHT22;31769;49.304;8.428;2023-05-10T18:11:06;17.70;99.90
46037;DHT22;31769;49.304;8.428;2023-05-10T18:14:07;17.60;99.90
46037;DHT22;31769;49.304;8.428;2023-05-10T18:17:08;17.40;99.90
46037;DHT22;31769;49.304;8.428;2023-05-10T18:20:09;17.30;99.90
46037;DHT22;31769;49.304;8.428;2023-05-10T18:23:09;17.30;99.90
46037;DHT22;31769;49.304;8.428;2023-05-10T18:26:10;17.20;99.90
46037;DHT22;31769;49.304;8.428;2023-05-10T18:29:12;17.20;99.90
46037;DHT22;31769;49.304;8.428;2023-05-10T18:32:13;17.00;99.90
46037;DHT22;31769;49.304;8.428;2023-05-10T18:35:14;16.90;99.90
46037;DHT22;31769;49.304;8.428;2023-05-10T18:38:15;17.90;99.90
46037;DHT22;31769;49.304;8.428;2023-05-10T18:41:15;16.60;99.90
46037;DHT22;31769;49.304;8.428;2023-05-10T18:44:16;16.50;99.90
46037;DHT22;31769;49.304;8.428;2023-05-10T18:47:18;16.40;99.90
46037;DHT22;31769;49.304;8.428;2023-05-10T18:50:19;16.30;99.90
46037;DHT22;31769;49.304;8.428;2023-05-10T18:53:20;16.20;99.90
46037;DHT22;31769;49.304;8.428;2023-05-10T18:56:20;16.00;99.90
46037;DHT22;31769;49.304;8.428;2023-05-10T18:59:21;16.40;99.90
46037;DHT22;31769;49.304;8.428;2023-05-10T19:02:22;15.80;99.90
46037;DHT22;31769;49.304;8.428;2023-05-10T19:05:24;15.60;99.90
46037;DHT22;31769;49.304;8.428;2023-05-10T19:08:29;15.60;99.90
46037;DHT22;31769;49.304;8.428;2023-05-10T19:11:30;16.00;99.90
46037;DHT22;31769;49.304;8.428;2023-05-10T19:14:33;15.70;99.90
46037;DHT22;31769;49.304;8.428;2023-05-10T19:17:34;15.60;99.90
46037;DHT22;31769;49.304;8.428;2023-05-10T19:20:36;15.50;99.90
46037;DHT22;31769;49.304;8.428;2023-05-10T19:23:37;15.50;99.90
46037;DHT22;31769;49.304;8.428;2023-05-10T19:26:41;15.50;99.90
46037;DHT22;31769;49.304;8.428;2023-05-10T19:29:42;15.40;99.90
46037;DHT22;31769;49.304;8.428;2023-05-10T19:32:45;15.30;99.90
46037;DHT22;31769;49.304;8.428;2023-05-10T19:35:45;15.30;99.90
46037;DHT22;31769;49.304;8.428;2023-05-10T19:38:46;15.20;99.90
46037;DHT22;31769;49.304;8.428;2023-05-10T19:41:47;15.20;99.90